createdAt,value
2018-03-26T00:00:31.653Z,29.93
2018-03-26T00:03:04.213Z,27.63
2018-03-26T00:05:37.814Z,29.10
2018-03-26T00:08:10.485Z,27.87
2018-03-26T00:10:43.154Z,29.20
2018-03-26T00:13:15.728Z,30.17
2018-03-26T00:15:48.245Z,33.97
2018-03-26T00:18:20.824Z,34.13
2018-03-26T00:20:53.450Z,33.80
2018-03-26T00:23:26.719Z,33.03
2018-03-26T00:25:59.378Z,31.73
2018-03-26T00:28:32.316Z,30.90
2018-03-26T00:31:04.950Z,32.30
2018-03-26T00:33:37.780Z,33.27
2018-03-26T00:36:10.865Z,30.60
2018-03-26T00:38:43.397Z,29.80
2018-03-26T00:41:16.052Z,29.50
2018-03-26T00:43:49.828Z,29.67
2018-03-26T00:46:22.358Z,27.07
2018-03-26T00:48:55.186Z,25.97
2018-03-26T00:51:28.382Z,32.33
2018-03-26T00:54:01.305Z,30.77
2018-03-26T00:56:33.880Z,27.30
2018-03-26T00:59:07.177Z,29.67
2018-03-26T01:01:40.472Z,31.53
2018-03-26T01:04:13.002Z,27.97
2018-03-26T01:06:45.827Z,32.53
2018-03-26T01:09:18.787Z,31.53
2018-03-26T01:11:51.488Z,26.47
2018-03-26T01:14:24.232Z,26.63
2018-03-26T01:16:57.015Z,27.27
2018-03-26T01:19:30.203Z,27.57
2018-03-26T01:22:03.223Z,31.40
2018-03-26T01:24:35.873Z,29.97
2018-03-26T01:27:08.408Z,33.80
2018-03-26T01:29:41.334Z,30.57
2018-03-26T01:32:14.639Z,29.17
2018-03-26T01:34:48.173Z,27.53
2018-03-26T01:37:20.912Z,32.33
2018-03-26T01:39:53.494Z,32.87
2018-03-26T01:42:25.988Z,31.27
2018-03-26T01:44:59.355Z,29.60
2018-03-26T01:47:32.163Z,29.40
2018-03-26T01:50:04.818Z,27.60
2018-03-26T01:52:37.410Z,35.23
2018-03-26T01:55:10.077Z,30.20
2018-03-26T01:57:42.782Z,30.07
2018-03-26T02:00:15.417Z,30.27
2018-03-26T02:02:48.224Z,33.77
2018-03-26T02:05:21.260Z,29.77
2018-03-26T02:07:54.048Z,31.17
2018-03-26T02:10:26.593Z,32.70
2018-03-26T02:12:59.399Z,28.03
2018-03-26T02:15:32.328Z,33.00
2018-03-26T02:18:05.654Z,33.97
2018-03-26T02:20:38.550Z,33.23
2018-03-26T02:23:11.213Z,31.07
2018-03-26T02:25:43.955Z,30.97
2018-03-26T02:28:16.545Z,29.70
2018-03-26T02:30:49.344Z,26.80
2018-03-26T02:33:21.779Z,27.90
2018-03-26T02:35:54.483Z,32.77
2018-03-26T02:38:27.160Z,33.03
2018-03-26T02:41:00.044Z,33.53
2018-03-26T02:43:33.260Z,29.30
2018-03-26T02:46:06.426Z,29.17
2018-03-26T02:48:39.171Z,28.63
2018-03-26T02:51:12.136Z,29.30
2018-03-26T02:53:46.199Z,29.70
2018-03-26T02:56:19.092Z,31.07
2018-03-26T02:58:52.795Z,32.73
2018-03-26T03:01:26.126Z,34.37
2018-03-26T03:03:58.870Z,35.47
2018-03-26T03:06:32.576Z,29.70
2018-03-26T03:09:05.933Z,29.97
2018-03-26T03:11:38.751Z,31.20
2018-03-26T03:14:11.314Z,31.90
2018-03-26T03:16:44.567Z,35.43
2018-03-26T03:19:17.179Z,30.33
2018-03-26T03:21:50.190Z,31.87
2018-03-26T03:24:23.660Z,33.50
2018-03-26T03:26:56.438Z,34.77
2018-03-26T03:29:29.553Z,31.57
2018-03-26T03:32:02.355Z,34.23
2018-03-26T03:34:35.326Z,26.57
2018-03-26T03:37:08.160Z,26.90
2018-03-26T03:39:42.090Z,28.07
2018-03-26T03:42:14.899Z,28.30
2018-03-26T03:44:47.696Z,30.50
2018-03-26T03:47:20.360Z,27.63
2018-03-26T03:49:53.360Z,30.27
2018-03-26T03:52:26.601Z,27.70
2018-03-26T03:55:00.036Z,35.87
2018-03-26T03:57:32.865Z,27.73
2018-03-26T04:00:05.524Z,29.63
2018-03-26T04:02:38.283Z,32.20
2018-03-26T04:05:11.713Z,29.97
2018-03-26T04:07:44.398Z,33.93
2018-03-26T04:10:17.353Z,32.50
2018-03-26T04:12:50.091Z,32.43
2018-03-26T04:15:23.110Z,32.67
2018-03-26T04:17:55.575Z,31.30
2018-03-26T04:20:28.899Z,27.77
2018-03-26T04:23:01.450Z,29.17
2018-03-26T04:25:33.873Z,30.23
2018-03-26T04:28:07.140Z,27.83
2018-03-26T04:30:39.880Z,28.77
2018-03-26T04:33:12.503Z,28.47
2018-03-26T04:35:45.141Z,27.97
2018-03-26T04:38:17.480Z,27.80
2018-03-26T04:40:50.747Z,28.67
2018-03-26T04:43:23.061Z,29.30
2018-03-26T04:45:55.599Z,29.23
2018-03-26T04:48:28.179Z,29.23
2018-03-26T04:51:01.359Z,29.03
2018-03-26T04:53:34.473Z,29.43
2018-03-26T04:56:07.736Z,30.27
2018-03-26T04:58:40.300Z,32.47
2018-03-26T05:01:13.823Z,31.07
2018-03-26T05:03:46.589Z,32.80
2018-03-26T05:06:19.149Z,39.33
2018-03-26T05:08:51.435Z,33.93
2018-03-26T05:11:24.017Z,35.77
2018-03-26T05:13:56.479Z,36.67
2018-03-26T05:16:29.633Z,33.13
2018-03-26T05:19:01.984Z,31.70
2018-03-26T05:21:35.549Z,33.47
2018-03-26T05:24:08.235Z,33.43
2018-03-26T05:26:40.924Z,33.73
2018-03-26T05:29:13.318Z,35.80
2018-03-26T05:31:45.664Z,34.30
2018-03-26T05:34:18.065Z,34.43
2018-03-26T05:36:50.696Z,33.73
2018-03-26T05:39:24.023Z,33.27
2018-03-26T05:41:57.622Z,35.43
2018-03-26T05:44:30.021Z,33.47
2018-03-26T05:47:02.523Z,34.20
2018-03-26T05:49:34.959Z,34.43
2018-03-26T05:52:07.518Z,34.73
2018-03-26T05:54:39.860Z,36.23
2018-03-26T05:57:12.248Z,39.27
2018-03-26T05:59:44.793Z,36.03
2018-03-26T06:02:17.365Z,36.90
2018-03-26T06:04:49.985Z,35.37
2018-03-26T06:07:22.353Z,39.80
2018-03-26T06:09:56.360Z,44.23
2018-03-26T06:12:28.783Z,38.80
2018-03-26T06:15:01.334Z,39.23
2018-03-26T06:17:34.589Z,41.10
2018-03-26T06:20:07.048Z,40.80
2018-03-26T06:22:39.418Z,42.73
2018-03-26T06:25:12.129Z,41.27
2018-03-26T06:27:45.003Z,43.37
2018-03-26T06:30:18.419Z,39.57
2018-03-26T06:32:51.583Z,40.57
2018-03-26T06:35:24.084Z,38.17
2018-03-26T06:37:57.419Z,38.30
2018-03-26T06:40:30.711Z,41.60
2018-03-26T06:43:10.934Z,36.77
2018-03-26T06:45:43.305Z,38.27
2018-03-26T06:48:16.492Z,39.37
2018-03-26T06:50:49.650Z,42.50
2018-03-26T06:53:21.989Z,40.07
2018-03-26T06:55:54.671Z,40.57
2018-03-26T06:58:27.455Z,40.50
2018-03-26T07:01:00.729Z,43.00
2018-03-26T07:03:33.082Z,43.90
2018-03-26T07:06:06.464Z,44.33
2018-03-26T07:08:39.173Z,42.67
2018-03-26T07:13:51.103Z,44.97
2018-03-26T07:16:23.749Z,43.20
2018-03-26T07:18:56.446Z,43.57
2018-03-26T07:21:28.904Z,42.30
2018-03-26T07:24:01.186Z,40.97
2018-03-26T07:26:34.683Z,41.77
2018-03-26T07:29:07.184Z,42.37
2018-03-26T07:31:40.395Z,40.23
2018-03-26T07:34:12.824Z,36.53
2018-03-26T07:36:45.464Z,39.13
2018-03-26T07:39:18.003Z,38.00
2018-03-26T07:41:50.507Z,39.13
2018-03-26T07:44:23.064Z,35.17
2018-03-26T07:46:55.380Z,38.70
2018-03-26T07:49:28.954Z,37.00
2018-03-26T07:52:02.100Z,36.57
2018-03-26T07:54:35.225Z,41.90
2018-03-26T07:57:08.346Z,36.47
2018-03-26T07:59:40.769Z,36.43
2018-03-26T08:02:13.920Z,34.60
2018-03-26T08:04:46.303Z,31.63
2018-03-26T08:07:18.831Z,33.73
2018-03-26T08:09:51.384Z,33.30
2018-03-26T08:12:25.104Z,29.93
2018-03-26T08:14:57.524Z,33.27
2018-03-26T08:17:30.776Z,29.63
2018-03-26T08:20:04.005Z,33.17
2018-03-26T08:22:36.401Z,30.30
2018-03-26T08:25:09.005Z,30.43
2018-03-26T08:27:41.551Z,30.00
2018-03-26T08:30:14.145Z,29.87
2018-03-26T08:32:46.695Z,25.70
2018-03-26T08:35:19.248Z,27.80
2018-03-26T08:37:51.724Z,25.73
2018-03-26T08:40:25.019Z,26.03
2018-03-26T08:42:58.310Z,21.83
2018-03-26T08:45:32.119Z,22.47
2018-03-26T08:48:04.865Z,23.23
2018-03-26T08:50:38.309Z,21.30
2018-03-26T08:53:11.045Z,23.07
2018-03-26T08:55:44.240Z,23.67
2018-03-26T08:58:16.715Z,22.90
2018-03-26T09:00:49.073Z,20.77
2018-03-26T09:03:21.689Z,19.73
2018-03-26T09:05:54.185Z,20.10
2018-03-26T09:08:26.484Z,20.47
2018-03-26T09:11:00.205Z,22.67
2018-03-26T09:13:33.456Z,20.33
2018-03-26T09:16:05.880Z,23.23
2018-03-26T09:18:38.307Z,19.27
2018-03-26T09:21:10.965Z,20.23
2018-03-26T09:23:43.315Z,20.87
2018-03-26T09:26:15.890Z,19.47
2018-03-26T09:28:48.415Z,19.27
2018-03-26T09:31:21.269Z,20.20
2018-03-26T09:33:53.856Z,17.43
2018-03-26T09:36:26.469Z,16.03
2018-03-26T09:38:58.956Z,16.60
2018-03-26T09:41:31.541Z,16.67
2018-03-26T09:44:04.810Z,15.13
2018-03-26T09:46:37.345Z,14.40
2018-03-26T09:49:10.033Z,13.03
2018-03-26T09:51:42.511Z,10.23
2018-03-26T09:54:15.013Z,12.43
2018-03-26T09:56:48.224Z,13.03
2018-03-26T09:59:20.704Z,12.20
2018-03-26T10:01:56.738Z,9.07
2018-03-26T10:04:30.045Z,10.33
2018-03-26T10:07:02.915Z,12.13
2018-03-26T10:09:35.489Z,11.73
2018-03-26T10:12:09.676Z,9.73
2018-03-26T10:14:42.445Z,6.67
2018-03-26T10:17:14.857Z,5.80
2018-03-26T10:19:48.167Z,8.37
2018-03-26T10:22:20.618Z,6.37
2018-03-26T10:24:53.942Z,3.00
2018-03-26T10:27:26.686Z,5.80
2018-03-26T10:29:59.281Z,6.80
2018-03-26T10:32:31.839Z,6.40
2018-03-26T10:35:04.606Z,5.73
2018-03-26T10:37:37.091Z,6.50
2018-03-26T10:40:09.749Z,6.20
2018-03-26T10:42:42.192Z,6.60
2018-03-26T10:45:14.914Z,5.87
2018-03-26T10:47:47.321Z,6.03
2018-03-26T10:50:20.509Z,7.40
2018-03-26T10:52:52.914Z,8.57
2018-03-26T10:55:25.439Z,8.63
2018-03-26T10:57:57.839Z,8.43
2018-03-26T11:00:31.056Z,8.43
2018-03-26T11:03:04.349Z,9.57
2018-03-26T11:05:37.279Z,10.00
2018-03-26T11:08:10.470Z,10.30
2018-03-26T11:10:43.694Z,8.53
2018-03-26T11:13:16.201Z,8.13
2018-03-26T11:15:48.930Z,6.80
2018-03-26T11:18:21.365Z,7.60
2018-03-26T11:20:54.681Z,8.17
2018-03-26T11:23:27.444Z,6.87
2018-03-26T11:25:59.944Z,7.60
2018-03-26T11:28:33.290Z,6.50
2018-03-26T11:31:06.937Z,6.53
2018-03-26T11:33:39.405Z,6.93
2018-03-26T11:36:12.893Z,7.17
2018-03-26T11:38:45.253Z,6.83
2018-03-26T11:41:17.872Z,7.10
2018-03-26T11:43:50.264Z,8.47
2018-03-26T11:46:23.415Z,8.33
2018-03-26T11:48:56.166Z,5.90
2018-03-26T11:51:28.695Z,6.03
2018-03-26T11:54:02.030Z,6.57
2018-03-26T11:56:34.531Z,6.17
2018-03-26T11:59:07.069Z,5.33
2018-03-26T12:01:39.630Z,6.50
2018-03-26T12:04:12.377Z,5.87
2018-03-26T12:06:44.649Z,5.93
2018-03-26T12:09:17.150Z,5.97
2018-03-26T12:11:49.680Z,4.80
2018-03-26T12:14:22.320Z,5.73
2018-03-26T12:16:54.989Z,4.60
2018-03-26T12:19:27.449Z,5.37
2018-03-26T12:22:00.194Z,5.43
2018-03-26T12:24:45.080Z,5.23
2018-03-26T12:27:17.567Z,4.90
2018-03-26T12:30:02.264Z,5.00
2018-03-26T12:32:34.990Z,4.53
2018-03-26T12:35:19.920Z,4.17
2018-03-26T12:37:52.462Z,4.57
2018-03-26T12:40:37.124Z,4.40
2018-03-26T12:43:09.736Z,4.37
2018-03-26T12:45:55.696Z,3.73
2018-03-26T12:48:29.040Z,2.60
2018-03-26T12:51:13.897Z,3.27
2018-03-26T12:53:46.605Z,2.80
2018-03-26T12:56:19.194Z,3.60
2018-03-26T12:58:51.585Z,2.57
2018-03-26T13:01:36.661Z,3.10
2018-03-26T13:04:09.200Z,3.07
2018-03-26T13:06:41.607Z,2.40
2018-03-26T13:09:14.024Z,2.33
2018-03-26T13:11:47.226Z,2.13
2018-03-26T13:14:20.661Z,2.40
2018-03-26T13:16:53.949Z,2.07
2018-03-26T13:19:26.586Z,2.23
2018-03-26T13:21:59.215Z,2.37
2018-03-26T13:24:31.889Z,2.20
2018-03-26T13:27:05.201Z,2.50
2018-03-26T13:29:37.701Z,2.83
2018-03-26T13:32:10.372Z,3.00
2018-03-26T13:34:42.851Z,2.40
2018-03-26T13:37:15.286Z,2.30
2018-03-26T13:39:47.825Z,1.50
2018-03-26T13:42:21.889Z,1.40
2018-03-26T13:44:54.595Z,1.43
2018-03-26T13:47:27.302Z,1.73
2018-03-26T13:49:59.730Z,2.20
2018-03-26T13:52:32.071Z,1.67
2018-03-26T13:55:05.682Z,1.63
2018-03-26T13:57:38.220Z,1.50
2018-03-26T14:00:10.731Z,1.60
2018-03-26T14:02:43.346Z,1.60
2018-03-26T14:05:15.777Z,1.80
2018-03-26T14:07:48.566Z,1.90
2018-03-26T14:10:33.429Z,2.20
2018-03-26T14:13:30.010Z,1.80
2018-03-26T14:16:14.547Z,1.77
2018-03-26T14:18:47.140Z,1.60
2018-03-26T14:21:19.688Z,1.57
2018-03-26T14:23:52.254Z,1.80
2018-03-26T14:26:24.934Z,1.90
2018-03-26T14:28:57.507Z,2.13
2018-03-26T14:31:31.409Z,2.30
2018-03-26T14:34:04.697Z,1.90
2018-03-26T14:36:37.394Z,1.70
2018-03-26T14:39:09.925Z,2.47
2018-03-26T14:41:43.857Z,1.60
2018-03-26T14:44:16.240Z,2.17
2018-03-26T14:46:48.935Z,2.03
2018-03-26T14:49:21.535Z,2.40
2018-03-26T14:51:53.936Z,2.73
2018-03-26T14:54:27.461Z,2.30
2018-03-26T14:56:59.932Z,2.10
2018-03-26T14:59:32.531Z,2.43
2018-03-26T15:02:06.052Z,2.80
2018-03-26T15:04:39.483Z,1.90
2018-03-26T15:07:12.647Z,2.00
2018-03-26T15:09:46.045Z,1.80
2018-03-26T15:12:18.573Z,1.70
2018-03-26T15:14:51.166Z,1.40
2018-03-26T15:17:23.755Z,1.80
2018-03-26T15:19:56.251Z,1.77
2018-03-26T15:22:28.922Z,2.30
2018-03-26T15:25:01.580Z,2.30
2018-03-26T15:27:34.896Z,2.70
2018-03-26T15:30:09.494Z,2.77
2018-03-26T15:32:41.978Z,2.40
2018-03-26T15:35:15.020Z,2.20
2018-03-26T15:37:48.070Z,2.07
2018-03-26T15:40:20.707Z,2.77
2018-03-26T15:42:53.231Z,3.20
2018-03-26T15:45:26.177Z,3.20
2018-03-26T15:47:58.722Z,3.17
2018-03-26T15:50:31.464Z,3.30
2018-03-26T15:53:03.951Z,3.27
2018-03-26T15:55:37.621Z,3.20
2018-03-26T15:58:11.747Z,2.60
2018-03-26T16:00:45.141Z,2.40
2018-03-26T16:03:23.786Z,2.50
2018-03-26T16:05:56.345Z,2.60
2018-03-26T16:08:29.096Z,2.60
2018-03-26T16:11:01.468Z,3.03
2018-03-26T16:16:13.294Z,3.30
2018-03-26T16:18:45.745Z,3.73
2018-03-26T16:21:18.605Z,3.30
2018-03-26T16:23:51.242Z,3.90
2018-03-26T16:26:24.032Z,3.78
2018-03-26T16:28:56.941Z,3.62
2018-03-26T16:31:29.640Z,4.18
2018-03-26T16:34:02.482Z,4.20
2018-03-26T16:36:35.850Z,4.65
2018-03-26T16:39:08.490Z,4.32
2018-03-26T16:41:47.459Z,5.87
2018-03-26T16:44:20.041Z,4.30
2018-03-26T16:46:53.248Z,3.90
2018-03-26T16:49:25.800Z,4.37
2018-03-26T16:51:58.269Z,4.07
2018-03-26T16:54:31.466Z,4.57
2018-03-26T16:57:04.655Z,4.90
2018-03-26T16:59:37.275Z,7.13
2018-03-26T17:02:09.745Z,9.07
2018-03-26T17:04:42.825Z,8.20
2018-03-26T17:07:16.307Z,9.00
2018-03-26T17:09:48.912Z,9.30
2018-03-26T17:12:21.469Z,8.80
2018-03-26T17:14:47.884Z,8.67
2018-03-26T17:17:14.232Z,8.23
2018-03-26T17:19:40.770Z,9.40
2018-03-26T17:22:07.279Z,11.70
2018-03-26T17:24:41.077Z,11.40
2018-03-26T17:27:07.477Z,9.73
2018-03-26T17:29:34.815Z,8.77
2018-03-26T17:32:02.061Z,9.33
2018-03-26T17:34:29.375Z,9.33
2018-03-26T17:36:55.738Z,9.33
2018-03-26T17:39:23.638Z,9.57
2018-03-26T17:41:50.786Z,10.13
2018-03-26T17:44:17.881Z,11.17
2018-03-26T17:46:44.209Z,9.83
2018-03-26T17:49:10.634Z,10.30
2018-03-26T17:51:36.986Z,10.20
2018-03-26T17:54:03.506Z,9.83
2018-03-26T17:56:30.006Z,9.53
2018-03-26T17:58:57.440Z,10.23
2018-03-26T18:01:23.839Z,9.87
2018-03-26T18:03:50.268Z,9.90
2018-03-26T18:06:17.472Z,8.97
2018-03-26T18:08:44.813Z,10.57
2018-03-26T18:11:11.345Z,10.03
2018-03-26T18:13:38.916Z,10.47
2018-03-26T18:16:06.037Z,9.93
2018-03-26T18:18:32.548Z,9.30
2018-03-26T18:20:59.008Z,10.47
2018-03-26T18:23:26.682Z,10.37
2018-03-26T18:25:53.860Z,9.60
2018-03-26T18:28:21.287Z,11.40
2018-03-26T18:30:47.902Z,10.50
2018-03-26T18:33:14.397Z,10.50
2018-03-26T18:35:41.087Z,10.97
2018-03-26T18:38:07.631Z,10.90
2018-03-26T18:40:34.500Z,11.00
2018-03-26T18:43:01.708Z,10.00
2018-03-26T18:45:28.353Z,10.17
2018-03-26T18:47:56.293Z,11.67
2018-03-26T18:50:22.891Z,10.60
2018-03-26T18:52:50.091Z,11.37
2018-03-26T18:55:16.516Z,10.60
2018-03-26T18:57:43.398Z,11.33
2018-03-26T19:00:09.869Z,11.37
2018-03-26T19:02:36.325Z,9.23
2018-03-26T19:05:02.877Z,11.40
2018-03-26T19:07:29.407Z,10.87
2018-03-26T19:09:56.551Z,11.30
2018-03-26T19:12:23.375Z,11.60
2018-03-26T19:14:50.187Z,10.87
2018-03-26T19:17:17.326Z,10.13
2018-03-26T19:19:43.879Z,12.17
2018-03-26T19:22:10.373Z,11.37
2018-03-26T19:24:36.878Z,11.20
2018-03-26T19:27:03.451Z,10.40
2018-03-26T19:29:29.958Z,10.67
2018-03-26T19:31:57.082Z,10.57
2018-03-26T19:34:23.509Z,11.10
2018-03-26T19:36:50.180Z,13.20
2018-03-26T19:39:16.593Z,12.03
2018-03-26T19:41:43.014Z,14.87
2018-03-26T19:44:09.678Z,18.77
2018-03-26T19:46:36.191Z,17.13
2018-03-26T19:49:03.526Z,13.17
2018-03-26T19:51:30.739Z,17.63
2018-03-26T19:53:57.128Z,15.80
2018-03-26T19:56:23.533Z,17.00
2018-03-26T19:58:49.944Z,14.10
2018-03-26T20:01:16.398Z,14.63
2018-03-26T20:03:42.932Z,13.97
2018-03-26T20:06:09.577Z,13.40
2018-03-26T20:08:36.756Z,13.63
2018-03-26T20:11:03.287Z,14.37
2018-03-26T20:13:30.422Z,14.37
2018-03-26T20:15:57.512Z,13.53
2018-03-26T20:18:23.875Z,11.50
2018-03-26T20:20:57.177Z,11.70
2018-03-26T20:23:30.640Z,15.07
2018-03-26T20:26:04.052Z,13.07
2018-03-26T20:28:36.989Z,12.17
2018-03-26T20:31:09.703Z,15.23
2018-03-26T20:33:42.489Z,15.33
2018-03-26T20:36:15.025Z,16.00
2018-03-26T20:38:47.736Z,15.10
2018-03-26T20:41:20.523Z,15.87
2018-03-26T20:43:53.111Z,15.23
2018-03-26T20:46:25.916Z,14.50
2018-03-26T20:48:58.775Z,13.87
2018-03-26T20:51:31.303Z,14.13
2018-03-26T20:54:04.906Z,15.93
2018-03-26T20:56:38.197Z,13.93
2018-03-26T20:59:10.963Z,15.87
2018-03-26T21:01:44.559Z,17.33
2018-03-26T21:04:17.939Z,17.80
2018-03-26T21:06:50.756Z,17.20
2018-03-26T21:09:24.139Z,16.30
2018-03-26T21:11:56.562Z,16.77
2018-03-26T21:14:29.135Z,17.07
2018-03-26T21:17:01.787Z,17.30
2018-03-26T21:19:34.949Z,17.20
2018-03-26T21:22:07.613Z,16.23
2018-03-26T21:24:40.329Z,15.10
2018-03-26T21:27:12.732Z,15.80
2018-03-26T21:29:45.187Z,15.83
2018-03-26T21:32:17.967Z,15.83
2018-03-26T21:34:50.449Z,14.57
2018-03-26T21:37:23.795Z,15.63
2018-03-26T21:39:56.363Z,17.67
2018-03-26T21:42:29.220Z,15.53
2018-03-26T21:45:02.765Z,16.50
2018-03-26T21:47:35.196Z,15.20
2018-03-26T21:50:07.959Z,17.50
2018-03-26T21:52:40.473Z,18.63
2018-03-26T21:55:13.141Z,17.67
2018-03-26T21:57:45.960Z,17.27
2018-03-26T22:00:20.294Z,18.77
2018-03-26T22:02:53.740Z,16.80
2018-03-26T22:05:26.106Z,16.77
2018-03-26T22:07:58.515Z,17.70
2018-03-26T22:10:31.275Z,17.80
2018-03-26T22:13:04.476Z,15.43
2018-03-26T22:15:37.074Z,17.63
2018-03-26T22:18:09.802Z,18.47
2018-03-26T22:20:42.283Z,18.50
2018-03-26T22:23:14.847Z,17.90
2018-03-26T22:25:48.136Z,17.30
2018-03-26T22:28:20.539Z,19.50
2018-03-26T22:30:53.119Z,19.73
2018-03-26T22:33:25.518Z,15.97
2018-03-26T22:35:58.677Z,18.77
2018-03-26T22:38:30.961Z,18.90
2018-03-26T22:41:03.432Z,20.43
2018-03-26T22:43:35.950Z,17.73
2018-03-26T22:46:08.435Z,15.57
2018-03-26T22:48:40.827Z,17.93
2018-03-26T22:51:14.097Z,18.67
2018-03-26T22:53:47.452Z,16.70
2018-03-26T22:56:20.686Z,16.53
2018-03-26T22:58:53.193Z,15.50
2018-03-26T23:01:25.822Z,16.03
2018-03-26T23:03:59.189Z,19.90
2018-03-26T23:06:33.143Z,19.33
2018-03-26T23:09:06.093Z,18.93
2018-03-26T23:11:38.739Z,19.80
2018-03-26T23:14:11.433Z,17.47
2018-03-26T23:16:45.422Z,15.27
2018-03-26T23:19:18.810Z,17.93
2018-03-26T23:21:52.066Z,20.07
2018-03-26T23:24:25.207Z,18.63
2018-03-26T23:26:57.811Z,19.83
2018-03-26T23:29:30.523Z,20.17
2018-03-26T23:32:03.232Z,19.07
2018-03-26T23:34:35.689Z,16.73
2018-03-26T23:37:08.830Z,17.30
2018-03-26T23:39:42.018Z,19.47
2018-03-26T23:42:14.581Z,20.67
2018-03-26T23:44:47.133Z,19.10
2018-03-26T23:47:19.553Z,18.63
2018-03-26T23:49:52.729Z,17.43
2018-03-26T23:52:25.921Z,19.77
2018-03-26T23:54:59.193Z,16.57
2018-03-26T23:57:31.837Z,17.90
